KDFW

Dallas Fort Worth International Airport

ICAO Code KDFW
IATA Code DFW
Name Dallas Fort Worth International Airport
Location Dallas-Fort Worth, Texas, US
Elevation 607 Feet / 185 Meters
Latitude 32.89680099
Longitude -97.03800201
METAR KDFW 270253Z 19017KT 10SM BKN250 25/17 A2968 RMK AO2 PK WND 20027/0208 SLP043 T02500172 53006
Extra information Display Charts
Runway Length Width Surface Elevation
13L 9000 ft 200 ft CON 550 ft
13R 9301 ft 150 ft CON 591 ft
17C 13401 ft 150 ft CON 562 ft
17L 8500 ft 150 ft CON 524 ft
17R 13401 ft 200 ft CON 567 ft
18L 13400 ft 200 ft CON 602 ft
18R 13400 ft 150 ft CON 607 ft
31R 9000 ft 200 ft CON 508 ft
31L 9301 ft 150 ft CON 577 ft
35C 13401 ft 150 ft CON 562 ft
35R 8500 ft 150 ft CON 575 ft
35L 13401 ft 200 ft CON 563 ft
36R 13400 ft 200 ft CON 575 ft
36L 13400 ft 150 ft CON 582 ft